sensor_id;sensor_type;location;lat;lon;timestamp;P1;durP1;ratioP1;P2;durP2;ratioP2
18114;SDS011;9184;54.390;18.620;2022-07-23T00:00:24;24.08;;;18.58;;
18114;SDS011;9184;54.390;18.620;2022-07-23T00:00:55;22.40;;;17.95;;
18114;SDS011;9184;54.390;18.620;2022-07-23T00:01:25;26.58;;;18.90;;
18114;SDS011;9184;54.390;18.620;2022-07-23T00:01:58;23.52;;;18.52;;
18114;SDS011;9184;54.390;18.620;2022-07-23T00:02:29;21.17;;;17.48;;
18114;SDS011;9184;54.390;18.620;2022-07-23T00:02:59;23.50;;;16.25;;
18114;SDS011;9184;54.390;18.620;2022-07-23T00:03:30;19.15;;;16.50;;
18114;SDS011;9184;54.390;18.620;2022-07-23T00:04:01;22.35;;;18.17;;
18114;SDS011;9184;54.390;18.620;2022-07-23T00:04:32;21.27;;;16.65;;
18114;SDS011;9184;54.390;18.620;2022-07-23T00:05:03;24.08;;;17.73;;
18114;SDS011;9184;54.390;18.620;2022-07-23T00:05:34;21.30;;;16.55;;
18114;SDS011;9184;54.390;18.620;2022-07-23T00:06:04;22.40;;;17.45;;
18114;SDS011;9184;54.390;18.620;2022-07-23T00:06:36;19.90;;;17.45;;
18114;SDS011;9184;54.390;18.620;2022-07-23T00:07:06;22.20;;;18.13;;
18114;SDS011;9184;54.390;18.620;2022-07-23T00:07:37;22.65;;;17.98;;
18114;SDS011;9184;54.390;18.620;2022-07-23T00:08:08;27.02;;;18.05;;
18114;SDS011;9184;54.390;18.620;2022-07-23T00:08:40;21.65;;;18.58;;
18114;SDS011;9184;54.390;18.620;2022-07-23T00:09:10;27.25;;;17.55;;
18114;SDS011;9184;54.390;18.620;2022-07-23T00:09:40;24.10;;;17.55;;
18114;SDS011;9184;54.390;18.620;2022-07-23T00:10:12;20.10;;;17.08;;
18114;SDS011;9184;54.390;18.620;2022-07-23T00:10:42;19.73;;;16.05;;
18114;SDS011;9184;54.390;18.620;2022-07-23T00:11:13;21.90;;;17.67;;
18114;SDS011;9184;54.390;18.620;2022-07-23T00:11:43;20.30;;;17.83;;
18114;SDS011;9184;54.390;18.620;2022-07-23T00:12:16;21.27;;;17.52;;
18114;SDS011;9184;54.390;18.620;2022-07-23T00:12:46;19.23;;;16.20;;
18114;SDS011;9184;54.390;18.620;2022-07-23T00:13:17;19.60;;;16.83;;
18114;SDS011;9184;54.390;18.620;2022-07-23T00:13:48;20.08;;;15.98;;
18114;SDS011;9184;54.390;18.620;2022-07-23T00:14:18;19.23;;;16.23;;
18114;SDS011;9184;54.390;18.620;2022-07-23T00:14:49;21.50;;;16.20;;
18114;SDS011;9184;54.390;18.620;2022-07-23T00:15:20;19.65;;;16.40;;
18114;SDS011;9184;54.390;18.620;2022-07-23T00:15:51;24.25;;;17.08;;
18114;SDS011;9184;54.390;18.620;2022-07-23T00:16:21;22.10;;;17.48;;
18114;SDS011;9184;54.390;18.620;2022-07-23T00:16:53;22.23;;;16.30;;
18114;SDS011;9184;54.390;18.620;2022-07-23T00:17:23;23.38;;;17.30;;
18114;SDS011;9184;54.390;18.620;2022-07-23T00:17:53;23.25;;;18.13;;
18114;SDS011;9184;54.390;18.620;2022-07-23T00:18:25;23.42;;;17.58;;
18114;SDS011;9184;54.390;18.620;2022-07-23T00:18:55;23.15;;;19.80;;
18114;SDS011;9184;54.390;18.620;2022-07-23T00:19:26;26.83;;;19.15;;
18114;SDS011;9184;54.390;18.620;2022-07-23T00:19:59;27.50;;;19.05;;
18114;SDS011;9184;54.390;18.620;2022-07-23T00:20:29;24.80;;;18.65;;
18114;SDS011;9184;54.390;18.620;2022-07-23T00:20:59;25.85;;;17.75;;
18114;SDS011;9184;54.390;18.620;2022-07-23T00:21:31;22.00;;;17.95;;
18114;SDS011;9184;54.390;18.620;2022-07-23T00:22:01;26.45;;;17.63;;
18114;SDS011;9184;54.390;18.620;2022-07-23T00:22:32;20.67;;;17.23;;
18114;SDS011;9184;54.390;18.620;2022-07-23T00:23:03;23.65;;;17.67;;
18114;SDS011;9184;54.390;18.620;2022-07-23T00:23:33;27.48;;;19.80;;
18114;SDS011;9184;54.390;18.620;2022-07-23T00:24:04;26.48;;;19.15;;
18114;SDS011;9184;54.390;18.620;2022-07-23T00:24:36;22.60;;;18.10;;
18114;SDS011;9184;54.390;18.620;2022-07-23T00:25:07;22.52;;;17.98;;
18114;SDS011;9184;54.390;18.620;2022-07-23T00:25:37;25.20;;;19.92;;
18114;SDS011;9184;54.390;18.620;2022-07-23T00:26:08;24.63;;;18.77;;
18114;SDS011;9184;54.390;18.620;2022-07-23T00:26:39;25.38;;;19.40;;
18114;SDS011;9184;54.390;18.620;2022-07-23T00:27:10;24.20;;;18.80;;
18114;SDS011;9184;54.390;18.620;2022-07-23T00:27:41;26.33;;;19.98;;
18114;SDS011;9184;54.390;18.620;2022-07-23T00:28:13;29.52;;;20.10;;
18114;SDS011;9184;54.390;18.620;2022-07-23T00:28:43;26.92;;;19.88;;
18114;SDS011;9184;54.390;18.620;2022-07-23T00:29:14;29.10;;;20.75;;
18114;SDS011;9184;54.390;18.620;2022-07-23T00:29:45;27.15;;;19.23;;
18114;SDS011;9184;54.390;18.620;2022-07-23T00:30:15;26.42;;;18.90;;
18114;SDS011;9184;54.390;18.620;2022-07-23T00:30:46;25.27;;;19.27;;
18114;SDS011;9184;54.390;18.620;2022-07-23T00:31:17;23.73;;;18.27;;
18114;SDS011;9184;54.390;18.620;2022-07-23T00:31:48;22.77;;;19.95;;
18114;SDS011;9184;54.390;18.620;2022-07-23T00:32:18;24.80;;;18.88;;
18114;SDS011;9184;54.390;18.620;2022-07-23T00:32:50;27.25;;;19.73;;
18114;SDS011;9184;54.390;18.620;2022-07-23T00:33:20;24.95;;;17.80;;
18114;SDS011;9184;54.390;18.620;2022-07-23T00:33:51;23.58;;;18.73;;
18114;SDS011;9184;54.390;18.620;2022-07-23T00:34:22;19.92;;;17.65;;
18114;SDS011;9184;54.390;18.620;2022-07-23T00:34:54;24.90;;;19.25;;
18114;SDS011;9184;54.390;18.620;2022-07-23T00:35:25;24.65;;;19.02;;
18114;SDS011;9184;54.390;18.620;2022-07-23T00:35:55;22.60;;;18.65;;
18114;SDS011;9184;54.390;18.620;2022-07-23T00:36:27;23.75;;;18.10;;
18114;SDS011;9184;54.390;18.620;2022-07-23T00:36:57;26.80;;;19.17;;
18114;SDS011;9184;54.390;18.620;2022-07-23T00:37:28;23.48;;;17.77;;
18114;SDS011;9184;54.390;18.620;2022-07-23T00:37:59;23.20;;;18.20;;
18114;SDS011;9184;54.390;18.620;2022-07-23T00:38:30;26.23;;;19.73;;
18114;SDS011;9184;54.390;18.620;2022-07-23T00:39:00;24.33;;;19.23;;
18114;SDS011;9184;54.390;18.620;2022-07-23T00:39:32;25.05;;;18.70;;
18114;SDS011;9184;54.390;18.620;2022-07-23T00:40:02;24.77;;;19.00;;
18114;SDS011;9184;54.390;18.620;2022-07-23T00:40:33;23.35;;;19.08;;
18114;SDS011;9184;54.390;18.620;2022-07-23T00:41:04;23.55;;;18.70;;
18114;SDS011;9184;54.390;18.620;2022-07-23T00:41:35;23.15;;;19.08;;
18114;SDS011;9184;54.390;18.620;2022-07-23T00:42:05;23.90;;;19.70;;
18114;SDS011;9184;54.390;18.620;2022-07-23T00:42:37;23.10;;;18.42;;
18114;SDS011;9184;54.390;18.620;2022-07-23T00:43:09;22.67;;;18.75;;
18114;SDS011;9184;54.390;18.620;2022-07-23T00:43:39;21.70;;;17.60;;
18114;SDS011;9184;54.390;18.620;2022-07-23T00:44:14;23.05;;;19.85;;
18114;SDS011;9184;54.390;18.620;2022-07-23T00:44:45;26.17;;;19.38;;
18114;SDS011;9184;54.390;18.620;2022-07-23T00:45:17;23.95;;;18.73;;
18114;SDS011;9184;54.390;18.620;2022-07-23T00:45:48;23.77;;;17.65;;
18114;SDS011;9184;54.390;18.620;2022-07-23T00:46:19;29.95;;;20.08;;
18114;SDS011;9184;54.390;18.620;2022-07-23T00:46:52;23.38;;;17.40;;
18114;SDS011;9184;54.390;18.620;2022-07-23T00:47:24;23.02;;;18.25;;
18114;SDS011;9184;54.390;18.620;2022-07-23T00:47:54;22.95;;;18.25;;
18114;SDS011;9184;54.390;18.620;2022-07-23T00:48:24;24.83;;;18.48;;
18114;SDS011;9184;54.390;18.620;2022-07-23T00:48:56;23.67;;;17.42;;
18114;SDS011;9184;54.390;18.620;2022-07-23T00:49:27;24.30;;;17.98;;
18114;SDS011;9184;54.390;18.620;2022-07-23T00:49:58;20.85;;;17.20;;
18114;SDS011;9184;54.390;18.620;2022-07-23T00:50:29;24.15;;;18.58;;
18114;SDS011;9184;54.390;18.620;2022-07-23T00:51:00;24.65;;;18.08;;
18114;SDS011;9184;54.390;18.620;2022-07-23T00:51:30;24.40;;;18.17;;
18114;SDS011;9184;54.390;18.620;2022-07-23T00:52:02;23.85;;;18.00;;
18114;SDS011;9184;54.390;18.620;2022-07-23T00:52:32;23.38;;;18.05;;
18114;SDS011;9184;54.390;18.620;2022-07-23T00:53:03;25.13;;;17.30;;
18114;SDS011;9184;54.390;18.620;2022-07-23T00:53:35;26.33;;;18.02;;
18114;SDS011;9184;54.390;18.620;2022-07-23T00:54:05;25.38;;;18.15;;
18114;SDS011;9184;54.390;18.620;2022-07-23T00:54:35;22.33;;;17.83;;
18114;SDS011;9184;54.390;18.620;2022-07-23T00:55:07;22.00;;;17.35;;
18114;SDS011;9184;54.390;18.620;2022-07-23T00:55:38;25.80;;;18.75;;
18114;SDS011;9184;54.390;18.620;2022-07-23T00:56:10;20.63;;;17.60;;
18114;SDS011;9184;54.390;18.620;2022-07-23T00:56:42;23.98;;;17.42;;
18114;SDS011;9184;54.390;18.620;2022-07-23T00:57:13;19.60;;;17.15;;
18114;SDS011;9184;54.390;18.620;2022-07-23T00:57:43;25.17;;;17.02;;
18114;SDS011;9184;54.390;18.620;2022-07-23T00:58:16;24.55;;;16.55;;
18114;SDS011;9184;54.390;18.620;2022-07-23T00:58:48;27.67;;;16.92;;
18114;SDS011;9184;54.390;18.620;2022-07-23T00:59:19;22.75;;;18.13;;
18114;SDS011;9184;54.390;18.620;2022-07-23T00:59:51;24.92;;;17.08;;
18114;SDS011;9184;54.390;18.620;2022-07-23T01:00:21;21.45;;;16.75;;
18114;SDS011;9184;54.390;18.620;2022-07-23T01:00:52;22.58;;;16.80;;
18114;SDS011;9184;54.390;18.620;2022-07-23T01:01:23;21.55;;;17.17;;
18114;SDS011;9184;54.390;18.620;2022-07-23T01:01:54;20.85;;;16.67;;
18114;SDS011;9184;54.390;18.620;2022-07-23T01:02:24;23.55;;;16.40;;
18114;SDS011;9184;54.390;18.620;2022-07-23T01:02:57;21.67;;;17.55;;
18114;SDS011;9184;54.390;18.620;2022-07-23T01:03:27;19.40;;;16.58;;
18114;SDS011;9184;54.390;18.620;2022-07-23T01:03:58;21.80;;;16.73;;
18114;SDS011;9184;54.390;18.620;2022-07-23T01:04:29;27.30;;;18.10;;
18114;SDS011;9184;54.390;18.620;2022-07-23T01:05:00;20.35;;;17.48;;
18114;SDS011;9184;54.390;18.620;2022-07-23T01:05:30;22.33;;;17.48;;
18114;SDS011;9184;54.390;18.620;2022-07-23T01:06:02;20.20;;;17.17;;
18114;SDS011;9184;54.390;18.620;2022-07-23T01:06:33;26.58;;;17.35;;
18114;SDS011;9184;54.390;18.620;2022-07-23T01:07:04;22.25;;;17.70;;
18114;SDS011;9184;54.390;18.620;2022-07-23T01:07:35;20.15;;;16.33;;
18114;SDS011;9184;54.390;18.620;2022-07-23T01:08:06;23.90;;;17.00;;
18114;SDS011;9184;54.390;18.620;2022-07-23T01:08:37;20.60;;;17.02;;
18114;SDS011;9184;54.390;18.620;2022-07-23T01:09:08;21.23;;;17.08;;
18114;SDS011;9184;54.390;18.620;2022-07-23T01:09:39;22.73;;;17.45;;
18114;SDS011;9184;54.390;18.620;2022-07-23T01:10:10;24.75;;;18.17;;
18114;SDS011;9184;54.390;18.620;2022-07-23T01:10:55;25.38;;;17.85;;
18114;SDS011;9184;54.390;18.620;2022-07-23T01:11:26;19.30;;;16.65;;
18114;SDS011;9184;54.390;18.620;2022-07-23T01:11:57;21.92;;;16.90;;
18114;SDS011;9184;54.390;18.620;2022-07-23T01:12:28;21.25;;;17.17;;
18114;SDS011;9184;54.390;18.620;2022-07-23T01:12:59;23.50;;;16.33;;
18114;SDS011;9184;54.390;18.620;2022-07-23T01:13:32;22.90;;;17.02;;
18114;SDS011;9184;54.390;18.620;2022-07-23T01:14:12;22.48;;;17.17;;
18114;SDS011;9184;54.390;18.620;2022-07-23T01:14:43;24.83;;;17.65;;
18114;SDS011;9184;54.390;18.620;2022-07-23T01:15:14;21.30;;;16.88;;
18114;SDS011;9184;54.390;18.620;2022-07-23T01:15:44;24.98;;;18.08;;
18114;SDS011;9184;54.390;18.620;2022-07-23T01:16:16;23.23;;;17.50;;
18114;SDS011;9184;54.390;18.620;2022-07-23T01:16:47;19.88;;;16.02;;
18114;SDS011;9184;54.390;18.620;2022-07-23T01:17:17;18.35;;;14.77;;
18114;SDS011;9184;54.390;18.620;2022-07-23T01:17:48;21.67;;;16.20;;
18114;SDS011;9184;54.390;18.620;2022-07-23T01:18:19;18.00;;;15.05;;
18114;SDS011;9184;54.390;18.620;2022-07-23T01:18:49;23.95;;;16.10;;
18114;SDS011;9184;54.390;18.620;2022-07-23T01:19:21;21.55;;;16.83;;
18114;SDS011;9184;54.390;18.620;2022-07-23T01:19:51;24.25;;;16.58;;
18114;SDS011;9184;54.390;18.620;2022-07-23T01:20:22;19.55;;;16.08;;
18114;SDS011;9184;54.390;18.620;2022-07-23T01:20:53;19.60;;;16.13;;
18114;SDS011;9184;54.390;18.620;2022-07-23T01:21:24;17.88;;;16.08;;
18114;SDS011;9184;54.390;18.620;2022-07-23T01:21:55;23.30;;;17.17;;
18114;SDS011;9184;54.390;18.620;2022-07-23T01:22:29;16.63;;;14.80;;
18114;SDS011;9184;54.390;18.620;2022-07-23T01:22:59;20.30;;;15.68;;
18114;SDS011;9184;54.390;18.620;2022-07-23T01:23:30;20.48;;;17.15;;
18114;SDS011;9184;54.390;18.620;2022-07-23T01:24:01;19.10;;;16.02;;
18114;SDS011;9184;54.390;18.620;2022-07-23T01:24:32;17.88;;;15.55;;
18114;SDS011;9184;54.390;18.620;2022-07-23T01:25:03;18.73;;;14.75;;
18114;SDS011;9184;54.390;18.620;2022-07-23T01:25:33;17.30;;;15.38;;
18114;SDS011;9184;54.390;18.620;2022-07-23T01:26:04;22.48;;;15.93;;
18114;SDS011;9184;54.390;18.620;2022-07-23T01:26:35;23.27;;;16.15;;
18114;SDS011;9184;54.390;18.620;2022-07-23T01:27:05;18.00;;;14.75;;
18114;SDS011;9184;54.390;18.620;2022-07-23T01:27:36;17.05;;;15.15;;
18114;SDS011;9184;54.390;18.620;2022-07-23T01:28:06;18.63;;;15.32;;
18114;SDS011;9184;54.390;18.620;2022-07-23T01:28:38;16.83;;;14.80;;
18114;SDS011;9184;54.390;18.620;2022-07-23T01:29:08;20.45;;;15.60;;
18114;SDS011;9184;54.390;18.620;2022-07-23T01:29:39;18.80;;;15.02;;
18114;SDS011;9184;54.390;18.620;2022-07-23T01:30:11;19.63;;;15.02;;
18114;SDS011;9184;54.390;18.620;2022-07-23T01:30:41;19.38;;;14.73;;
18114;SDS011;9184;54.390;18.620;2022-07-23T01:31:12;16.88;;;15.07;;
18114;SDS011;9184;54.390;18.620;2022-07-23T01:31:43;19.33;;;15.30;;
18114;SDS011;9184;54.390;18.620;2022-07-23T01:32:14;17.10;;;15.27;;
18114;SDS011;9184;54.390;18.620;2022-07-23T01:32:44;20.65;;;15.63;;
18114;SDS011;9184;54.390;18.620;2022-07-23T01:33:15;20.65;;;15.15;;
18114;SDS011;9184;54.390;18.620;2022-07-23T01:33:46;19.70;;;15.82;;
18114;SDS011;9184;54.390;18.620;2022-07-23T01:34:16;22.92;;;16.63;;
18114;SDS011;9184;54.390;18.620;2022-07-23T01:34:48;22.27;;;15.63;;
18114;SDS011;9184;54.390;18.620;2022-07-23T01:35:18;18.98;;;15.70;;
18114;SDS011;9184;54.390;18.620;2022-07-23T01:35:50;18.98;;;15.68;;
18114;SDS011;9184;54.390;18.620;2022-07-23T01:36:20;18.90;;;15.80;;
18114;SDS011;9184;54.390;18.620;2022-07-23T01:36:54;18.30;;;16.40;;
18114;SDS011;9184;54.390;18.620;2022-07-23T01:37:25;21.42;;;15.80;;
18114;SDS011;9184;54.390;18.620;2022-07-23T01:37:57;21.27;;;15.35;;
18114;SDS011;9184;54.390;18.620;2022-07-23T01:38:27;18.75;;;16.33;;
18114;SDS011;9184;54.390;18.620;2022-07-23T01:38:58;23.55;;;16.88;;
18114;SDS011;9184;54.390;18.620;2022-07-23T01:39:29;22.98;;;16.30;;
18114;SDS011;9184;54.390;18.620;2022-07-23T01:39:59;21.58;;;16.75;;
18114;SDS011;9184;54.390;18.620;2022-07-23T01:40:31;21.63;;;17.67;;
18114;SDS011;9184;54.390;18.620;2022-07-23T01:41:01;22.67;;;17.05;;
18114;SDS011;9184;54.390;18.620;2022-07-23T01:41:32;19.88;;;15.55;;
18114;SDS011;9184;54.390;18.620;2022-07-23T01:42:04;19.13;;;15.82;;
18114;SDS011;9184;54.390;18.620;2022-07-23T01:42:34;21.95;;;16.52;;
18114;SDS011;9184;54.390;18.620;2022-07-23T01:43:04;17.60;;;14.95;;
18114;SDS011;9184;54.390;18.620;2022-07-23T01:43:35;20.13;;;15.73;;
18114;SDS011;9184;54.390;18.620;2022-07-23T01:44:06;21.33;;;15.82;;
18114;SDS011;9184;54.390;18.620;2022-07-23T01:44:37;19.45;;;16.05;;
18114;SDS011;9184;54.390;18.620;2022-07-23T01:45:07;18.90;;;16.20;;
18114;SDS011;9184;54.390;18.620;2022-07-23T01:45:45;19.10;;;15.57;;
18114;SDS011;9184;54.390;18.620;2022-07-23T01:46:15;17.98;;;16.08;;
18114;SDS011;9184;54.390;18.620;2022-07-23T01:46:46;19.92;;;16.05;;
18114;SDS011;9184;54.390;18.620;2022-07-23T01:47:17;19.58;;;16.85;;
18114;SDS011;9184;54.390;18.620;2022-07-23T01:47:48;18.48;;;15.95;;
18114;SDS011;9184;54.390;18.620;2022-07-23T01:48:18;18.40;;;15.07;;
18114;SDS011;9184;54.390;18.620;2022-07-23T01:48:50;23.00;;;15.88;;
18114;SDS011;9184;54.390;18.620;2022-07-23T01:49:20;19.90;;;15.70;;
18114;SDS011;9184;54.390;18.620;2022-07-23T01:49:51;20.42;;;15.60;;
18114;SDS011;9184;54.390;18.620;2022-07-23T01:50:22;18.02;;;15.07;;
18114;SDS011;9184;54.390;18.620;2022-07-23T01:50:53;17.15;;;15.35;;
18114;SDS011;9184;54.390;18.620;2022-07-23T01:51:23;17.70;;;15.50;;
18114;SDS011;9184;54.390;18.620;2022-07-23T01:51:54;21.10;;;15.43;;
18114;SDS011;9184;54.390;18.620;2022-07-23T01:52:31;17.65;;;15.65;;
18114;SDS011;9184;54.390;18.620;2022-07-23T01:53:03;23.70;;;15.52;;
18114;SDS011;9184;54.390;18.620;2022-07-23T01:53:34;22.08;;;15.32;;
18114;SDS011;9184;54.390;18.620;2022-07-23T01:54:04;23.17;;;15.13;;
18114;SDS011;9184;54.390;18.620;2022-07-23T01:54:35;22.23;;;15.57;;
18114;SDS011;9184;54.390;18.620;2022-07-23T01:55:06;24.05;;;17.58;;
18114;SDS011;9184;54.390;18.620;2022-07-23T01:55:38;18.75;;;16.25;;
18114;SDS011;9184;54.390;18.620;2022-07-23T01:56:08;17.60;;;15.80;;
18114;SDS011;9184;54.390;18.620;2022-07-23T01:56:38;19.27;;;15.50;;
18114;SDS011;9184;54.390;18.620;2022-07-23T01:57:10;19.10;;;15.65;;
18114;SDS011;9184;54.390;18.620;2022-07-23T01:57:40;18.83;;;15.75;;
18114;SDS011;9184;54.390;18.620;2022-07-23T01:58:10;18.15;;;16.15;;
18114;SDS011;9184;54.390;18.620;2022-07-23T01:58:42;21.13;;;16.48;;
18114;SDS011;9184;54.390;18.620;2022-07-23T01:59:12;19.50;;;16.05;;
18114;SDS011;9184;54.390;18.620;2022-07-23T01:59:43;18.52;;;16.52;;
18114;SDS011;9184;54.390;18.620;2022-07-23T02:00:14;21.00;;;15.82;;
18114;SDS011;9184;54.390;18.620;2022-07-23T02:00:45;21.33;;;16.38;;
18114;SDS011;9184;54.390;18.620;2022-07-23T02:01:15;22.35;;;17.02;;
18114;SDS011;9184;54.390;18.620;2022-07-23T02:01:46;25.05;;;16.65;;
18114;SDS011;9184;54.390;18.620;2022-07-23T02:02:17;22.80;;;16.80;;
18114;SDS011;9184;54.390;18.620;2022-07-23T02:02:47;23.10;;;16.92;;
18114;SDS011;9184;54.390;18.620;2022-07-23T02:03:18;27.05;;;17.92;;
18114;SDS011;9184;54.390;18.620;2022-07-23T02:03:50;22.45;;;16.70;;
18114;SDS011;9184;54.390;18.620;2022-07-23T02:04:21;18.52;;;16.60;;
18114;SDS011;9184;54.390;18.620;2022-07-23T02:04:51;19.45;;;16.42;;
18114;SDS011;9184;54.390;18.620;2022-07-23T02:05:22;23.33;;;16.10;;
18114;SDS011;9184;54.390;18.620;2022-07-23T02:05:53;18.98;;;16.27;;
18114;SDS011;9184;54.390;18.620;2022-07-23T02:06:24;18.85;;;16.70;;
18114;SDS011;9184;54.390;18.620;2022-07-23T02:06:55;22.25;;;17.15;;
18114;SDS011;9184;54.390;18.620;2022-07-23T02:07:25;25.02;;;17.75;;
18114;SDS011;9184;54.390;18.620;2022-07-23T02:07:57;21.95;;;16.20;;
18114;SDS011;9184;54.390;18.620;2022-07-23T02:08:28;21.85;;;16.73;;
18114;SDS011;9184;54.390;18.620;2022-07-23T02:08:59;22.23;;;17.45;;
18114;SDS011;9184;54.390;18.620;2022-07-23T02:09:30;22.38;;;15.95;;
18114;SDS011;9184;54.390;18.620;2022-07-23T02:10:01;22.80;;;18.30;;
18114;SDS011;9184;54.390;18.620;2022-07-23T02:10:31;22.00;;;17.35;;
18114;SDS011;9184;54.390;18.620;2022-07-23T02:11:03;25.27;;;17.55;;
18114;SDS011;9184;54.390;18.620;2022-07-23T02:11:33;23.15;;;17.48;;
18114;SDS011;9184;54.390;18.620;2022-07-23T02:12:04;23.15;;;17.70;;
18114;SDS011;9184;54.390;18.620;2022-07-23T02:12:35;25.15;;;17.27;;
18114;SDS011;9184;54.390;18.620;2022-07-23T02:13:05;23.75;;;17.42;;
18114;SDS011;9184;54.390;18.620;2022-07-23T02:13:36;22.02;;;18.10;;
18114;SDS011;9184;54.390;18.620;2022-07-23T02:14:07;24.55;;;16.85;;
18114;SDS011;9184;54.390;18.620;2022-07-23T02:14:38;23.55;;;17.65;;
18114;SDS011;9184;54.390;18.620;2022-07-23T02:15:08;23.00;;;18.00;;
18114;SDS011;9184;54.390;18.620;2022-07-23T02:15:39;23.15;;;17.75;;
18114;SDS011;9184;54.390;18.620;2022-07-23T02:16:10;29.63;;;18.48;;
18114;SDS011;9184;54.390;18.620;2022-07-23T02:16:40;22.58;;;17.50;;
18114;SDS011;9184;54.390;18.620;2022-07-23T02:17:12;27.33;;;18.20;;
18114;SDS011;9184;54.390;18.620;2022-07-23T02:17:42;25.67;;;18.35;;
18114;SDS011;9184;54.390;18.620;2022-07-23T02:18:13;22.88;;;17.08;;
18114;SDS011;9184;54.390;18.620;2022-07-23T02:18:44;22.75;;;16.98;;
18114;SDS011;9184;54.390;18.620;2022-07-23T02:19:16;22.58;;;18.05;;
18114;SDS011;9184;54.390;18.620;2022-07-23T02:19:46;22.00;;;17.58;;
18114;SDS011;9184;54.390;18.620;2022-07-23T02:20:16;27.08;;;19.13;;
18114;SDS011;9184;54.390;18.620;2022-07-23T02:20:48;26.48;;;17.73;;
18114;SDS011;9184;54.390;18.620;2022-07-23T02:21:19;20.75;;;17.48;;
18114;SDS011;9184;54.390;18.620;2022-07-23T02:21:49;30.40;;;19.50;;
18114;SDS011;9184;54.390;18.620;2022-07-23T02:22:21;21.80;;;18.73;;
18114;SDS011;9184;54.390;18.620;2022-07-23T02:22:51;23.30;;;18.40;;
18114;SDS011;9184;54.390;18.620;2022-07-23T02:23:21;24.92;;;18.92;;
18114;SDS011;9184;54.390;18.620;2022-07-23T02:23:53;24.15;;;17.98;;
18114;SDS011;9184;54.390;18.620;2022-07-23T02:24:25;22.20;;;17.48;;
18114;SDS011;9184;54.390;18.620;2022-07-23T02:24:55;21.67;;;17.67;;
18114;SDS011;9184;54.390;18.620;2022-07-23T02:25:25;24.83;;;18.20;;
18114;SDS011;9184;54.390;18.620;2022-07-23T02:25:57;23.85;;;17.85;;
18114;SDS011;9184;54.390;18.620;2022-07-23T02:26:27;22.50;;;19.20;;
18114;SDS011;9184;54.390;18.620;2022-07-23T02:26:57;22.48;;;18.50;;
18114;SDS011;9184;54.390;18.620;2022-07-23T02:27:28;19.17;;;16.17;;
18114;SDS011;9184;54.390;18.620;2022-07-23T02:28:00;26.50;;;17.50;;
18114;SDS011;9184;54.390;18.620;2022-07-23T02:28:30;21.92;;;16.55;;
18114;SDS011;9184;54.390;18.620;2022-07-23T02:29:00;20.85;;;17.60;;
18114;SDS011;9184;54.390;18.620;2022-07-23T02:29:32;22.83;;;16.38;;
18114;SDS011;9184;54.390;18.620;2022-07-23T02:30:03;24.88;;;18.08;;
18114;SDS011;9184;54.390;18.620;2022-07-23T02:30:34;22.75;;;17.27;;
18114;SDS011;9184;54.390;18.620;2022-07-23T02:31:06;20.02;;;16.50;;
18114;SDS011;9184;54.390;18.620;2022-07-23T02:31:36;22.75;;;17.20;;
18114;SDS011;9184;54.390;18.620;2022-07-23T02:32:07;20.65;;;17.25;;
18114;SDS011;9184;54.390;18.620;2022-07-23T02:32:38;22.50;;;17.52;;
18114;SDS011;9184;54.390;18.620;2022-07-23T02:33:09;20.40;;;16.65;;
18114;SDS011;9184;54.390;18.620;2022-07-23T02:33:40;18.55;;;16.27;;
18114;SDS011;9184;54.390;18.620;2022-07-23T02:34:11;21.70;;;17.98;;
18114;SDS011;9184;54.390;18.620;2022-07-23T02:34:41;22.58;;;16.95;;
18114;SDS011;9184;54.390;18.620;2022-07-23T02:35:12;20.35;;;15.73;;
18114;SDS011;9184;54.390;18.620;2022-07-23T02:35:43;19.95;;;16.30;;
18114;SDS011;9184;54.390;18.620;2022-07-23T02:36:13;21.35;;;16.75;;
18114;SDS011;9184;54.390;18.620;2022-07-23T02:36:44;20.30;;;16.17;;
18114;SDS011;9184;54.390;18.620;2022-07-23T02:37:14;22.35;;;16.08;;
18114;SDS011;9184;54.390;18.620;2022-07-23T02:37:46;19.15;;;15.93;;
18114;SDS011;9184;54.390;18.620;2022-07-23T02:38:16;16.92;;;14.98;;
18114;SDS011;9184;54.390;18.620;2022-07-23T02:38:47;20.17;;;16.00;;
18114;SDS011;9184;54.390;18.620;2022-07-23T02:39:19;22.27;;;15.15;;
18114;SDS011;9184;54.390;18.620;2022-07-23T02:39:50;18.05;;;15.40;;
18114;SDS011;9184;54.390;18.620;2022-07-23T02:40:21;16.42;;;14.23;;
18114;SDS011;9184;54.390;18.620;2022-07-23T02:40:53;21.45;;;15.60;;
18114;SDS011;9184;54.390;18.620;2022-07-23T02:41:23;19.17;;;14.70;;
18114;SDS011;9184;54.390;18.620;2022-07-23T02:41:54;19.75;;;14.52;;
18114;SDS011;9184;54.390;18.620;2022-07-23T02:42:25;19.52;;;15.13;;
18114;SDS011;9184;54.390;18.620;2022-07-23T02:42:55;18.88;;;14.88;;
18114;SDS011;9184;54.390;18.620;2022-07-23T02:43:26;21.75;;;14.88;;
18114;SDS011;9184;54.390;18.620;2022-07-23T02:43:57;16.00;;;14.13;;
18114;SDS011;9184;54.390;18.620;2022-07-23T02:44:28;18.50;;;14.48;;
18114;SDS011;9184;54.390;18.620;2022-07-23T02:44:58;18.58;;;13.88;;
18114;SDS011;9184;54.390;18.620;2022-07-23T02:45:30;18.17;;;14.27;;
18114;SDS011;9184;54.390;18.620;2022-07-23T02:46:00;21.83;;;15.23;;
18114;SDS011;9184;54.390;18.620;2022-07-23T02:46:31;17.25;;;13.77;;
18114;SDS011;9184;54.390;18.620;2022-07-23T02:47:02;18.60;;;14.45;;
18114;SDS011;9184;54.390;18.620;2022-07-23T02:47:32;17.50;;;14.45;;
18114;SDS011;9184;54.390;18.620;2022-07-23T02:48:03;21.60;;;14.45;;
18114;SDS011;9184;54.390;18.620;2022-07-23T02:48:35;16.35;;;12.98;;
18114;SDS011;9184;54.390;18.620;2022-07-23T02:49:05;21.15;;;14.38;;
18114;SDS011;9184;54.390;18.620;2022-07-23T02:49:35;18.80;;;13.75;;
18114;SDS011;9184;54.390;18.620;2022-07-23T02:50:07;17.15;;;13.73;;
18114;SDS011;9184;54.390;18.620;2022-07-23T02:50:38;19.08;;;14.07;;
18114;SDS011;9184;54.390;18.620;2022-07-23T02:51:08;18.80;;;13.85;;
18114;SDS011;9184;54.390;18.620;2022-07-23T02:51:40;17.63;;;13.32;;
18114;SDS011;9184;54.390;18.620;2022-07-23T02:52:10;17.55;;;13.68;;
18114;SDS011;9184;54.390;18.620;2022-07-23T02:52:41;22.33;;;14.63;;
18114;SDS011;9184;54.390;18.620;2022-07-23T02:53:12;18.75;;;14.98;;
18114;SDS011;9184;54.390;18.620;2022-07-23T02:53:42;16.92;;;13.80;;
18114;SDS011;9184;54.390;18.620;2022-07-23T02:54:13;19.98;;;13.68;;
18114;SDS011;9184;54.390;18.620;2022-07-23T02:54:46;14.70;;;12.80;;
18114;SDS011;9184;54.390;18.620;2022-07-23T02:55:16;20.42;;;14.50;;
18114;SDS011;9184;54.390;18.620;2022-07-23T02:55:46;22.33;;;14.82;;
18114;SDS011;9184;54.390;18.620;2022-07-23T02:56:18;19.52;;;14.25;;
18114;SDS011;9184;54.390;18.620;2022-07-23T02:56:48;19.02;;;14.35;;
18114;SDS011;9184;54.390;18.620;2022-07-23T02:57:20;21.33;;;14.45;;
18114;SDS011;9184;54.390;18.620;2022-07-23T02:57:54;17.17;;;14.05;;
18114;SDS011;9184;54.390;18.620;2022-07-23T02:58:24;20.52;;;14.18;;
18114;SDS011;9184;54.390;18.620;2022-07-23T02:58:56;15.35;;;13.73;;
18114;SDS011;9184;54.390;18.620;2022-07-23T02:59:27;18.00;;;14.30;;
18114;SDS011;9184;54.390;18.620;2022-07-23T02:59:58;19.33;;;13.65;;
18114;SDS011;9184;54.390;18.620;2022-07-23T03:00:28;20.63;;;14.25;;
18114;SDS011;9184;54.390;18.620;2022-07-23T03:01:00;17.60;;;14.75;;
18114;SDS011;9184;54.390;18.620;2022-07-23T03:01:30;22.17;;;17.50;;